Aeroporto :
LOGIN :

Iscrizione | Disclaimer

   EN    FR    IT 

 










Sommario :    VFR   VFR Marginale   IFR   IFR Intensivo   IFR Molto Intensivo
Visibilità : 
Base nubi : 
>= 8 km
>= 3000ft
5 / 8 km
1000 / 3000 ft
1500m / 5 km
500 / 1000 ft
800 / 1500m
200 / 500 ft
< 800m
< 200 ft
Simboli :   Temporali  Nebbia  Neve Forte  Precipitazioni Forti  Vento > 20 kt
SIGMETs :   Varie  Temporali  Ghiacco  Turbolenza  Onda orograficha  Ceneri Vulcaniche






- Altitudine del aeroporto : 197 ft
- Codice IATA : XOG


LFMO - Orange

ULTIMO METAR :
  • 200100Z AUTO 35018KT 9999 FEW060 06/M00 Q1027 BECMG 35015G25KT

METARs OBSOLETI :
  • 200030Z AUTO 34016KT 9999 OVC060 06/M00 Q1027 BECMG 35015G25KT
  • 200000Z AUTO 35010KT 9999 OVC064 06/M00 Q1027 BECMG 35015G25KT
  • 192330Z AUTO 36012KT 9999 OVC062 06/00 Q1027 BECMG 35015G25KT
  • 192300Z AUTO 36017KT 9999 OVC062 06/00 Q1027 BECMG 35015G25KT
  • 192230Z AUTO 32007KT 290V360 9999 OVC062 06/01 Q1027 BECMG 35015G25KT

TAF TAF LFMO
Valido dal 19 a 21 ore il 20 a 21 ore UTC


192000Z 1921/2021 30008KT 9999 FEW050 TX08/2012Z TN02/2004Z
BECMG 1923/2001 35015G25KT
BECMG 2006/2008 35020G35KT
BECMG 2010/2012 35030G40KT
PROB30
TEMPO 2016/2021 35030G50KT



MetMap, La meteo Aeronautica in un colpo d'occhio ! - Copyright ORBIFLY Dicembre 2007 - Disclaimer

ORBIFLY MET'MAP TEAM :

Programmazione e sviluppo : Alexandra Zaïnal
Concezione : Baudouin d'Aumeries
Aiuto per la programmazione : Marc-Olivier Méhu
Supporto tecnico e logistico : Manuel Goepfert
Aiuto per la traduzione : Arnaldo La Scala

Contatto : metmap@orbifly.com




FONTI E CREDITI :

   NOAA